Time;durP1;ratioP1;P1;durP2;ratioP2;P2;SDS_P1;SDS_P2;PMS_P1;PMS_P2;Temp;Humidity;BMP_temperature;BMP_pressure;BME280_temperature;BME280_humidity;BME280_pressure;Samples;Min_cycle;Max_cycle;Signal;HPM_P1;HPM_P2
2022/02/06 00:00:04;;;;;;;;;;;2.10;70.10;;;0.44;71.27;96544.63;4932048;29;20036;-65
2022/02/06 00:02:34;;;;;;;;;;;2.20;69.80;;;0.42;69.62;96538.72;4943211;28;19930;-65
2022/02/06 00:05:00;;;;;;;;;;;2.10;70.00;;;0.42;70.13;96536.16;4931037;28;20307;-65
2022/02/06 00:07:26;;;;;;;;;;;2.10;70.00;;;0.42;70.49;96537.91;4938752;28;19919;-65
2022/02/06 00:09:52;;;;;;;;;;;2.10;70.10;;;0.41;70.59;96528.50;4952293;28;19926;-65
2022/02/06 00:12:17;;;;;;;;;;;2.10;70.10;;;0.43;70.80;96534.38;4951960;28;20579;-65
2022/02/06 00:14:43;;;;;;;;;;;2.10;69.80;;;0.47;69.77;96530.66;4932347;28;19973;-65
2022/02/06 00:17:09;;;;;;;;;;;2.20;69.50;;;0.47;69.78;96526.28;4935975;28;20255;-65
2022/02/06 00:19:36;;;;;;;;;;;2.20;69.50;;;0.47;69.86;96521.13;4960994;28;19923;-65
2022/02/06 00:22:04;;;;;;;;;;;2.20;69.50;;;0.46;70.30;96519.47;4958191;28;19966;-64
2022/02/06 00:24:57;;;;;;;;;;;2.20;69.50;;;0.45;70.20;96515.22;4959867;28;19926;-65
2022/02/06 00:27:35;;;;;;;;;;;2.10;69.50;;;0.47;69.58;96509.94;4929824;28;19929;-65
2022/02/06 00:30:13;;;;;;;;;;;2.20;69.40;;;0.49;70.10;96513.25;4940770;28;19926;-65
2022/02/06 00:32:45;;;;;;;;;;;2.20;69.20;;;0.50;69.79;96509.72;4947351;28;19929;-64
2022/02/06 00:35:21;;;;;;;;;;;2.20;69.20;;;0.49;69.63;96500.28;4939139;28;20446;-64
2022/02/06 00:41:22;;;;;;;;;;;2.10;69.40;;;0.43;70.18;96504.16;4947000;28;19941;-64
2022/02/06 00:43:17;;;;;;;;;;;2.10;69.60;;;0.44;69.90;96505.81;4952434;28;19956;-65
2022/02/06 00:45:42;;;;;;;;;;;2.10;69.60;;;0.41;70.39;96506.03;4936192;28;19926;-65
2022/02/06 00:48:08;;;;;;;;;;;2.10;69.80;;;0.44;71.26;96494.63;4912305;29;19915;-65
2022/02/06 00:50:35;;;;;;;;;;;2.20;69.50;;;0.40;70.13;96496.63;4930306;29;19958;-64
2022/02/06 00:53:05;;;;;;;;;;;2.10;69.70;;;0.41;69.98;96485.34;4931017;28;20404;-64
2022/02/06 00:55:31;;;;;;;;;;;2.10;69.60;;;0.40;70.09;96480.28;4937149;28;19926;-67
2022/02/06 00:57:56;;;;;;;;;;;2.10;69.70;;;0.39;70.92;96484.63;4963592;28;19918;-65
2022/02/06 01:00:23;;;;;;;;;;;2.10;69.70;;;0.38;70.62;96479.56;4948169;28;19985;-67
2022/02/06 01:02:52;;;;;;;;;;;2.10;69.60;;;0.40;70.76;96482.88;4947121;28;19919;-66
2022/02/06 01:05:18;;;;;;;;;;;2.20;69.60;;;0.39;70.80;96482.03;4939144;28;19926;-67
2022/02/06 01:07:43;;;;;;;;;;;2.20;69.70;;;0.41;70.76;96482.75;4949487;28;20445;-67
2022/02/06 01:10:09;;;;;;;;;;;2.20;69.60;;;0.42;70.60;96481.81;4919165;29;19922;-67
2022/02/06 01:12:37;;;;;;;;;;;2.20;69.30;;;0.43;70.78;96488.63;4960833;28;20304;-66
2022/02/06 01:17:37;;;;;;;;;;;2.20;69.20;;;0.42;70.22;96486.97;4938549;28;20026;-67
2022/02/06 01:20:14;;;;;;;;;;;2.20;69.30;;;0.43;70.39;96486.03;4935014;28;19918;-67
2022/02/06 01:22:48;;;;;;;;;;;2.20;69.20;;;0.44;70.43;96487.69;4952048;28;19974;-66
2022/02/06 01:25:20;;;;;;;;;;;2.20;69.10;;;0.43;70.35;96483.44;4934070;28;19924;-67
2022/02/06 01:28:09;;;;;;;;;;;2.20;69.20;;;0.42;69.93;96479.22;4932485;29;20280;-67
2022/02/06 01:30:46;;;;;;;;;;;2.20;69.30;;;0.44;70.58;96479.09;4936384;28;19930;-66
2022/02/06 01:33:21;;;;;;;;;;;2.20;69.30;;;0.41;70.59;96477.56;4930263;28;19998;-67
2022/02/06 01:41:07;;;;;;;;;;;2.20;69.50;;;0.40;70.62;96459.56;4933977;28;20006;-65
2022/02/06 01:43:41;;;;;;;;;;;2.20;69.60;;;0.39;70.53;96455.34;4919179;29;20025;-65
2022/02/06 02:02:29;;;;;;;;;;;2.20;70.20;;;0.43;71.71;96451.56;4945221;28;19925;-65
2022/02/06 02:13:17;;;;;;;;;;;2.20;70.50;;;0.44;72.13;96437.69;4933689;28;19919;-65
2022/02/06 02:29:33;;;;;;;;;;;2.40;70.40;;;0.49;72.20;96431.25;4942292;28;20374;-66
2022/02/06 02:47:59;;;;;;;;;;;2.40;70.90;;;0.47;72.66;96391.72;4931636;29;19958;-65
2022/02/06 02:50:25;;;;;;;;;;;2.30;71.00;;;0.47;72.79;96391.72;4933089;28;19950;-65
2022/02/06 02:53:10;;;;;;;;;;;2.40;70.90;;;0.48;72.24;96395.97;4965600;28;19922;-65
2022/02/06 02:58:25;;;;;;;;;;;2.30;71.10;;;0.44;72.42;96391.94;4936326;29;19923;-65
2022/02/06 03:05:44;;;;;;;;;;;2.30;71.30;;;0.43;73.25;96389.47;4965026;28;19919;-65
2022/02/06 03:08:10;;;;;;;;;;;2.30;71.50;;;0.44;72.71;96396.28;4923084;29;19918;-65
2022/02/06 03:10:36;;;;;;;;;;;2.20;71.50;;;0.44;73.12;96386.75;4958315;28;20469;-65
2022/02/06 03:13:05;;;;;;;;;;;2.20;71.60;;;0.44;73.62;96388.53;4932681;28;19946;-65
2022/02/06 03:15:52;;;;;;;;;;;2.30;71.70;;;0.43;73.07;96386.88;4916993;29;19955;-65
2022/02/06 03:18:24;;;;;;;;;;;2.20;71.70;;;0.44;73.18;96384.16;4941316;28;19941;-65
2022/02/06 03:20:52;;;;;;;;;;;2.20;71.90;;;0.43;73.45;96379.94;4929513;28;19926;-66
2022/02/06 03:23:18;;;;;;;;;;;2.30;71.90;;;0.43;73.22;96374.75;4947484;28;19926;-67
2022/02/06 03:25:53;;;;;;;;;;;2.20;72.00;;;0.40;73.50;96369.00;4973661;28;19918;-66
2022/02/06 03:28:25;;;;;;;;;;;2.10;72.20;;;0.39;73.89;96368.19;4947914;28;20009;-65
2022/02/06 03:30:51;;;;;;;;;;;2.20;72.20;;;0.40;73.35;96364.66;4928849;28;19923;-66
2022/02/06 03:33:17;;;;;;;;;;;2.20;72.30;;;0.41;73.18;96366.31;4947801;28;19964;-65
2022/02/06 03:35:43;;;;;;;;;;;2.20;72.20;;;0.39;73.74;96357.84;4932025;28;19926;-66
2022/02/06 03:38:09;;;;;;;;;;;2.20;72.50;;;0.36;72.86;96358.09;4941039;28;19925;-66
2022/02/06 03:40:58;;;;;;;;;;;2.10;72.70;;;0.36;73.86;96358.09;4912147;28;19930;-65
2022/02/06 03:46:12;;;;;;;;;;;2.10;73.20;;;0.35;74.05;96356.44;4932216;28;19977;-66
2022/02/06 03:48:54;;;;;;;;;;;2.10;73.20;;;0.35;74.19;96350.44;4945808;28;19933;-66
2022/02/06 03:51:30;;;;;;;;;;;2.10;73.20;;;0.37;73.36;96344.19;4943035;28;20009;-66
2022/02/06 03:53:56;;;;;;;;;;;2.20;73.00;;;0.39;73.91;96350.06;4925898;28;19930;-65
2022/02/06 03:56:23;;;;;;;;;;;2.20;72.90;;;0.41;74.44;96340.44;4939504;28;19919;-65
2022/02/06 03:58:48;;;;;;;;;;;2.20;72.80;;;0.41;74.08;96335.25;4946870;28;19930;-66
2022/02/06 04:01:14;;;;;;;;;;;2.20;72.90;;;0.42;74.25;96325.72;4939371;28;19919;-66
2022/02/06 04:03:40;;;;;;;;;;;2.20;72.80;;;0.45;74.00;96328.88;4937126;28;20332;-65
2022/02/06 04:06:05;;;;;;;;;;;2.30;72.60;;;0.48;74.27;96314.91;4933999;29;19926;-66
2022/02/06 04:08:34;;;;;;;;;;;2.30;72.60;;;0.51;72.78;96315.47;4969820;28;19923;-65
2022/02/06 04:11:02;;;;;;;;;;;2.40;72.50;;;0.55;74.15;96316.88;4977096;28;19929;-65
2022/02/06 04:13:30;;;;;;;;;;;2.40;72.60;;;0.59;74.07;96313.09;4933756;28;20280;-65
2022/02/06 04:16:01;;;;;;;;;;;2.40;72.50;;;0.66;74.65;96302.25;4952008;28;20005;-66
2022/02/06 04:18:47;;;;;;;;;;;2.50;72.20;;;0.69;73.12;96294.25;4949481;28;20001;-66
2022/02/06 04:21:12;;;;;;;;;;;2.50;72.30;;;0.75;74.18;96301.53;4913462;29;19919;-65
2022/02/06 04:23:38;;;;;;;;;;;2.60;72.00;;;0.79;74.30;96288.19;4916586;29;20428;-66
2022/02/06 04:26:04;;;;;;;;;;;2.60;72.00;;;0.85;73.98;96292.06;4973413;28;19918;-65
2022/02/06 04:28:29;;;;;;;;;;;2.60;71.90;;;0.90;73.75;96282.13;4943064;28;20375;-67
2022/02/06 04:30:55;;;;;;;;;;;2.70;71.80;;;0.94;73.60;96280.97;4939431;28;19931;-66
2022/02/06 04:33:21;;;;;;;;;;;2.80;71.60;;;1.00;73.85;96269.28;4936354;29;19927;-65
2022/02/06 04:35:49;;;;;;;;;;;2.80;71.50;;;1.03;73.24;96256.88;4964299;28;19925;-65
2022/02/06 04:43:42;;;;;;;;;;;2.90;71.60;;;1.18;73.04;96242.69;4946991;28;19926;-66
2022/02/06 05:14:03;;;;;;;;;;;3.30;69.90;;;1.58;72.38;96210.78;4935167;28;19925;-65
2022/02/06 05:16:30;;;;;;;;;;;3.30;69.60;;;1.63;72.13;96211.25;4934478;29;20283;-66
2022/02/06 05:22:06;;;;;;;;;;;3.40;69.10;;;1.67;71.96;96217.81;4941941;28;19925;-65
2022/02/06 05:27:45;;;;;;;;;;;3.40;69.00;;;1.71;71.88;96219.19;4948187;28;20397;-66
2022/02/06 05:30:15;;;;;;;;;;;3.40;69.20;;;1.74;71.60;96218.09;4953628;28;20053;-66
2022/02/06 05:32:58;;;;;;;;;;;3.50;68.90;;;1.74;71.73;96218.91;4941240;29;19925;-65
2022/02/06 05:35:23;;;;;;;;;;;3.50;68.90;;;1.76;71.09;96222.19;4946102;28;19918;-65
2022/02/06 05:37:49;;;;;;;;;;;3.40;68.40;;;1.77;71.19;96213.47;4946996;28;19925;-64
2022/02/06 05:40:15;;;;;;;;;;;3.50;68.40;;;1.78;71.01;96215.09;4951130;28;19969;-65
2022/02/06 05:42:42;;;;;;;;;;;3.50;68.30;;;1.78;70.87;96215.09;4944500;28;19918;-65
2022/02/06 05:45:08;;;;;;;;;;;3.50;68.20;;;1.80;70.65;96220.97;4978555;28;19924;-65
2022/02/06 05:47:34;;;;;;;;;;;3.50;68.30;;;1.83;70.89;96207.75;4945088;28;19973;-65
2022/02/06 05:50:00;;;;;;;;;;;3.50;68.10;;;1.84;71.18;96209.41;4948676;28;19922;-65
2022/02/06 05:52:25;;;;;;;;;;;3.60;67.90;;;1.85;70.58;96215.41;4946188;28;19918;-65
2022/02/06 05:54:51;;;;;;;;;;;3.60;68.00;;;1.88;69.99;96227.28;4935022;28;20466;-65
2022/02/06 05:57:17;;;;;;;;;;;3.60;67.80;;;1.87;70.58;96228.25;4943156;28;19968;-66
2022/02/06 05:59:42;;;;;;;;;;;3.50;67.80;;;1.90;70.65;96220.19;4961989;28;19918;-65
2022/02/06 06:02:08;;;;;;;;;;;3.60;67.80;;;1.91;70.39;96216.66;4947017;28;20406;-65
2022/02/06 06:04:34;;;;;;;;;;;3.60;67.50;;;1.93;70.42;96222.53;4939258;28;19919;-65
2022/02/06 06:07:01;;;;;;;;;;;3.60;67.30;;;1.95;70.19;96220.59;4933007;28;19919;-65
2022/02/06 06:09:26;;;;;;;;;;;3.70;67.20;;;1.96;69.36;96222.25;4953666;28;20354;-65
2022/02/06 06:11:52;;;;;;;;;;;3.70;67.10;;;1.96;70.27;96230.84;4948215;28;20048;-65
2022/02/06 06:14:18;;;;;;;;;;;3.70;67.30;;;1.98;69.51;96225.53;4962948;28;19941;-65
2022/02/06 06:16:43;;;;;;;;;;;3.70;67.00;;;2.02;69.71;96226.91;4975653;28;19926;-65
2022/02/06 06:19:10;;;;;;;;;;;3.70;66.70;;;2.03;69.95;96218.16;4977229;28;19918;-65
2022/02/06 06:21:40;;;;;;;;;;;3.80;66.80;;;2.04;69.88;96225.84;4918804;28;19953;-65
2022/02/06 06:24:06;;;;;;;;;;;3.80;66.90;;;2.04;69.93;96215.47;4927320;28;19974;-65
2022/02/06 06:26:36;;;;;;;;;;;3.70;66.70;;;2.08;69.53;96227.22;4934697;28;19923;-67
2022/02/06 06:29:02;;;;;;;;;;;3.80;66.40;;;2.10;69.44;96224.47;4936847;28;19964;-65
2022/02/06 06:31:28;;;;;;;;;;;3.90;66.30;;;2.11;69.48;96220.94;4940221;28;20275;-66
2022/02/06 06:33:54;;;;;;;;;;;3.80;66.30;;;2.11;69.87;96215.75;4919173;29;20294;-68
2022/02/06 06:36:21;;;;;;;;;;;3.80;66.30;;;2.13;69.10;96209.47;4930682;29;19918;-69
2022/02/06 06:38:49;;;;;;;;;;;3.80;66.00;;;2.14;69.24;96207.69;4923632;28;19997;-69
2022/02/06 06:41:15;;;;;;;;;;;3.90;65.90;;;2.17;68.93;96206.59;4950691;28;20362;-65
2022/02/06 06:43:40;;;;;;;;;;;3.80;65.80;;;2.17;69.29;96194.44;4954943;28;19919;-66
2022/02/06 06:46:06;;;;;;;;;;;3.90;65.80;;;2.20;69.29;96208.91;4931277;28;19925;-66
2022/02/06 06:48:32;;;;;;;;;;;3.90;65.80;;;2.22;68.94;96213.00;4942243;28;20439;-67
2022/02/06 06:50:57;;;;;;;;;;;3.90;65.70;;;2.23;69.25;96206.03;4940071;28;19923;-66
2022/02/06 06:53:23;;;;;;;;;;;3.90;65.80;;;2.24;69.50;96205.09;4918905;29;19919;-67
2022/02/06 06:55:56;;;;;;;;;;;3.90;65.60;;;2.25;68.98;96202.34;4928080;28;20252;-66
2022/02/06 06:58:37;;;;;;;;;;;3.90;65.40;;;2.28;68.23;96199.50;4957049;28;19929;-67
2022/02/06 07:03:31;;;;;;;;;;;4.10;65.30;;;2.32;68.24;96189.69;4929672;28;19930;-65
2022/02/06 07:05:58;;;;;;;;;;;4.10;64.80;;;2.33;68.50;96183.53;4929766;28;19918;-65
2022/02/06 07:08:24;;;;;;;;;;;4.10;64.70;;;2.37;68.32;96193.50;4940652;28;19922;-66
2022/02/06 07:10:49;;;;;;;;;;;4.10;64.60;;;2.39;68.09;96178.59;4945283;28;20361;-65
2022/02/06 07:13:17;;;;;;;;;;;4.10;64.50;;;2.43;68.02;96198.13;4948310;28;19987;-66
2022/02/06 07:15:43;;;;;;;;;;;4.10;64.50;;;2.46;67.93;96184.06;4931432;28;20018;-66
2022/02/06 07:18:08;;;;;;;;;;;4.20;64.20;;;2.47;67.76;96181.34;4955399;28;19919;-66
2022/02/06 07:20:36;;;;;;;;;;;4.20;63.80;;;2.53;67.62;96186.94;4978173;28;20323;-66
2022/02/06 07:23:02;;;;;;;;;;;4.30;63.70;;;2.56;67.71;96160.72;4950673;28;19922;-66
2022/02/06 07:25:28;;;;;;;;;;;4.30;63.60;;;2.57;67.46;96149.38;4954515;28;20003;-66
2022/02/06 07:27:54;;;;;;;;;;;4.20;63.30;;;2.60;67.42;96154.28;4948658;28;19994;-66
2022/02/06 07:30:20;;;;;;;;;;;4.30;63.40;;;2.62;67.42;96147.16;4940635;28;19928;-67
2022/02/06 07:32:45;;;;;;;;;;;4.40;63.20;;;2.67;66.86;96150.16;4948231;28;19926;-65
2022/02/06 07:35:12;;;;;;;;;;;4.40;62.70;;;2.66;67.21;96148.53;4949030;28;19919;-69
2022/02/06 07:37:42;;;;;;;;;;;4.40;62.90;;;2.70;66.62;96155.88;4947586;28;20388;-69
2022/02/06 07:40:08;;;;;;;;;;;4.50;62.70;;;2.72;66.53;96150.59;4951461;28;19941;-70
2022/02/06 07:42:34;;;;;;;;;;;4.50;62.30;;;2.73;66.48;96147.84;4963651;28;19918;-68
2022/02/06 07:45:00;;;;;;;;;;;4.40;62.20;;;2.76;66.65;96146.75;4937869;28;20375;-68
2022/02/06 07:47:26;;;;;;;;;;;4.50;62.40;;;2.75;66.84;96148.53;4936132;29;19969;-71
2022/02/06 07:49:53;;;;;;;;;;;4.50;62.30;;;2.76;66.59;96151.94;4943921;28;20354;-68
2022/02/06 07:52:22;;;;;;;;;;;4.50;62.20;;;2.77;66.59;96143.19;4953448;28;19934;-69
2022/02/06 07:54:48;;;;;;;;;;;4.40;62.30;;;2.75;66.31;96148.53;4930665;28;20280;-70
2022/02/06 07:57:14;;;;;;;;;;;4.40;62.30;;;2.74;66.58;96146.88;4917041;29;19918;-70
2022/02/06 07:59:40;;;;;;;;;;;4.50;62.30;;;2.78;66.49;96154.41;4916280;29;19925;-69
2022/02/06 08:02:06;;;;;;;;;;;4.60;62.20;;;2.81;66.34;96156.72;4931720;29;19941;-70
2022/02/06 08:04:32;;;;;;;;;;;4.70;61.70;;;2.88;66.62;96158.59;4931929;29;19923;-66
2022/02/06 08:06:57;;;;;;;;;;;5.20;60.70;;;3.02;65.63;96139.97;4933352;28;19923;-66
2022/02/06 08:09:58;;;;;;;;;;;5.60;58.70;;;3.20;65.58;96147.88;4964235;28;19918;-66
2022/02/06 08:12:15;;;;;;;;;;;5.90;57.60;;;3.40;64.88;96148.63;4935735;29;19925;-65
2022/02/06 08:14:56;;;;;;;;;;;6.10;57.00;;;3.53;64.83;96143.88;4958713;28;19961;-66
2022/02/06 08:17:26;;;;;;;;;;;6.00;56.90;;;3.66;64.17;96128.78;4967790;28;19922;-66
2022/02/06 08:19:53;;;;;;;;;;;6.10;57.10;;;3.78;64.18;96128.56;4950938;28;20426;-65
2022/02/06 08:22:18;;;;;;;;;;;6.20;57.10;;;3.92;64.44;96122.88;4943462;28;19926;-68
2022/02/06 08:24:44;;;;;;;;;;;6.30;56.60;;;4.05;63.80;96131.09;4962841;28;19919;-70
2022/02/06 08:27:10;;;;;;;;;;;6.40;56.00;;;4.14;63.23;96101.59;4961902;28;19933;-70
2022/02/06 08:29:38;;;;;;;;;;;6.40;55.90;;;4.21;63.02;96101.81;4918285;29;20040;-67
2022/02/06 08:32:05;;;;;;;;;;;6.50;56.00;;;4.27;63.26;96107.25;4916642;29;19973;-69
2022/02/06 08:34:31;;;;;;;;;;;6.50;55.60;;;4.37;62.90;96106.34;4946035;28;20300;-68
2022/02/06 08:36:59;;;;;;;;;;;6.60;55.60;;;4.42;62.94;96089.31;4961352;28;19981;-68
2022/02/06 08:39:25;;;;;;;;;;;6.60;55.20;;;4.50;62.57;96072.91;4966434;28;19926;-67
2022/02/06 08:41:51;;;;;;;;;;;6.70;54.50;;;4.57;62.33;96060.94;4916373;29;20347;-64
2022/02/06 08:44:17;;;;;;;;;;;6.90;54.20;;;4.68;62.22;96071.09;4916004;29;19975;-68
2022/02/06 08:46:42;;;;;;;;;;;7.00;53.80;;;4.79;60.80;96055.22;4930080;28;19966;-70
2022/02/06 08:49:08;;;;;;;;;;;7.10;53.20;;;4.91;61.52;96051.34;4929313;28;19952;-68
2022/02/06 08:51:34;;;;;;;;;;;7.30;53.20;;;5.01;61.66;96047.84;4946730;28;19922;-70
2022/02/06 08:53:59;;;;;;;;;;;7.40;52.70;;;5.12;60.64;96034.50;4925464;29;20374;-69
2022/02/06 08:56:27;;;;;;;;;;;7.60;52.40;;;5.25;60.58;96029.69;4948727;28;19914;-69
2022/02/06 08:58:53;;;;;;;;;;;7.70;52.10;;;5.34;59.14;96023.50;4931109;28;19984;-68
2022/02/06 09:01:19;;;;;;;;;;;7.60;51.40;;;5.37;60.68;96044.06;4954345;28;19919;-70
2022/02/06 09:03:44;;;;;;;;;;;7.50;51.50;;;5.38;60.08;96024.81;4956590;28;19918;-68
2022/02/06 09:06:12;;;;;;;;;;;7.40;52.20;;;5.33;60.73;96011.44;4951449;28;19925;-68
2022/02/06 09:08:38;;;;;;;;;;;7.20;52.70;;;5.27;60.00;96012.09;4926981;29;19966;-68
2022/02/06 09:11:03;;;;;;;;;;;7.10;53.00;;;5.19;59.09;96009.44;4932341;28;19942;-68
2022/02/06 09:13:30;;;;;;;;;;;6.80;53.50;;;5.12;59.29;96018.88;4930759;29;19926;-72
2022/02/06 09:15:56;;;;;;;;;;;6.80;53.70;;;5.04;60.41;96021.44;4934239;28;20374;-69
2022/02/06 09:18:22;;;;;;;;;;;6.60;54.30;;;5.02;59.97;96031.22;4946844;28;19956;-70
2022/02/06 09:20:47;;;;;;;;;;;6.80;54.20;;;5.03;60.00;95998.97;4940636;28;19925;-68
2022/02/06 09:23:13;;;;;;;;;;;6.90;53.80;;;5.03;59.80;95983.31;4932088;28;20593;-70
2022/02/06 09:25:39;;;;;;;;;;;6.80;53.40;;;4.98;60.60;95981.19;4954641;28;19961;-70
2022/02/06 09:28:04;;;;;;;;;;;6.80;54.10;;;5.01;60.10;96000.91;4934318;28;20311;-73
2022/02/06 09:30:30;;;;;;;;;;;6.90;53.90;;;5.03;59.91;95999.78;4970534;28;19923;-70
2022/02/06 09:35:22;;;;;;;;;;;7.10;53.30;;;5.14;60.43;96002.09;4949284;28;20108;-71
2022/02/06 09:37:48;;;;;;;;;;;7.20;53.10;;;5.15;59.83;96008.94;4966019;28;19922;-70
2022/02/06 09:40:15;;;;;;;;;;;7.10;53.30;;;5.20;59.31;95998.03;4944773;28;19918;-70
2022/02/06 09:42:42;;;;;;;;;;;7.20;52.80;;;5.30;59.01;95990.09;4933769;28;19923;-72
2022/02/06 09:45:09;;;;;;;;;;;7.50;51.60;;;5.35;60.03;95996.47;4945236;28;19957;-70
2022/02/06 09:47:35;;;;;;;;;;;7.70;51.50;;;5.47;59.58;95997.81;4941070;28;19918;-72
2022/02/06 09:50:00;;;;;;;;;;;8.20;49.70;;;5.62;59.23;95990.16;4933078;28;19923;-69
2022/02/06 09:52:26;;;;;;;;;;;8.60;48.50;;;5.81;58.26;95994.25;4939811;28;20443;-69
2022/02/06 09:54:53;;;;;;;;;;;9.00;47.40;;;6.02;58.23;95992.00;4962563;28;20044;-69
2022/02/06 09:57:25;;;;;;;;;;;9.40;47.10;;;6.27;58.56;95989.38;4932903;29;19926;-72
2022/02/06 09:59:53;;;;;;;;;;;10.00;45.80;;;6.60;57.04;95980.53;4930561;28;19933;-69
2022/02/06 10:02:18;;;;;;;;;;;10.50;44.40;;;6.81;56.20;95971.34;4918301;29;19919;-68
2022/02/06 10:04:45;;;;;;;;;;;10.50;43.50;;;7.09;55.98;95976.94;4950158;28;19925;-68
2022/02/06 10:07:12;;;;;;;;;;;11.20;42.60;;;7.36;55.30;95958.97;4914401;28;19919;-71
2022/02/06 10:09:37;;;;;;;;;;;11.70;40.70;;;7.69;54.98;95961.38;4956279;28;20181;-68
2022/02/06 10:12:04;;;;;;;;;;;13.10;38.70;;;8.14;54.66;95964.97;4970758;28;19923;-67
2022/02/06 10:14:29;;;;;;;;;;;13.90;36.70;;;8.36;53.62;95951.03;4947415;28;19919;-69
2022/02/06 10:16:55;;;;;;;;;;;13.30;37.00;;;8.65;52.56;95967.81;4967541;28;19999;-69
2022/02/06 10:19:21;;;;;;;;;;;15.00;34.90;;;9.08;51.07;95946.00;4956740;28;20405;-69
2022/02/06 10:21:47;;;;;;;;;;;15.70;32.90;;;9.60;52.73;95939.72;4917691;29;20005;-68
2022/02/06 10:24:29;;;;;;;;;;;16.60;31.50;;;9.85;50.95;95923.56;4912773;29;20712;-66
2022/02/06 10:29:43;;;;;;;;;;;17.10;30.80;;;10.50;49.68;95922.50;4924226;29;19930;-64
2022/02/06 10:32:19;;;;;;;;;;;15.80;32.50;;;10.60;50.00;95918.50;4932946;28;19925;-66
2022/02/06 10:34:45;;;;;;;;;;;15.60;33.00;;;10.48;50.05;95904.28;4936411;29;19918;-67
2022/02/06 10:37:23;;;;;;;;;;;14.50;34.30;;;10.29;50.31;95900.53;4949357;28;19997;-66
2022/02/06 10:40:06;;;;;;;;;;;13.50;35.40;;;10.15;50.72;95904.00;4927472;29;19969;-66
2022/02/06 10:42:37;;;;;;;;;;;13.10;37.00;;;9.93;51.62;95890.09;4930119;28;19945;-66
2022/02/06 10:45:22;;;;;;;;;;;12.70;38.10;;;9.66;48.13;95878.56;4930983;28;20041;-67
2022/02/06 10:47:49;;;;;;;;;;;12.20;38.70;;;9.44;48.89;95864.63;4917119;29;19986;-68
2022/02/06 10:50:23;;;;;;;;;;;12.20;38.80;;;9.35;49.98;95891.19;4933852;28;19923;-67
2022/02/06 10:52:49;;;;;;;;;;;12.30;38.70;;;9.20;50.06;95857.09;4943607;28;19922;-68
2022/02/06 10:55:15;;;;;;;;;;;12.10;39.00;;;9.16;50.46;95851.41;4946355;28;20349;-67
2022/02/06 10:57:56;;;;;;;;;;;12.20;39.00;;;9.25;49.36;95853.91;4963006;28;19926;-67
2022/02/06 11:00:30;;;;;;;;;;;12.70;38.50;;;9.30;49.95;95841.88;4946893;28;20942;-65
2022/02/06 11:03:09;;;;;;;;;;;12.70;38.90;;;9.27;49.45;95821.22;4935153;28;19926;-67
2022/02/06 11:05:46;;;;;;;;;;;12.20;39.30;;;9.19;50.32;95813.50;4933447;29;19923;-67
2022/02/06 11:08:12;;;;;;;;;;;11.90;39.80;;;9.04;50.18;95795.16;4935855;28;20382;-67
2022/02/06 11:10:37;;;;;;;;;;;11.30;40.90;;;8.79;50.23;95772.91;4957264;28;19997;-66
2022/02/06 11:13:04;;;;;;;;;;;11.00;41.50;;;8.71;51.11;95783.53;4966821;28;20379;-68
2022/02/06 11:15:31;;;;;;;;;;;11.00;41.30;;;8.60;51.55;95766.50;4951313;28;19926;-67
2022/02/06 11:18:14;;;;;;;;;;;10.80;41.70;;;8.53;51.17;95766.38;4946239;28;19925;-68
2022/02/06 11:20:56;;;;;;;;;;;10.70;42.00;;;8.38;49.58;95749.91;4941123;28;19964;-68
2022/02/06 11:23:23;;;;;;;;;;;10.60;41.80;;;8.34;50.19;95761.72;4936772;28;19922;-68
2022/02/06 11:25:50;;;;;;;;;;;10.70;42.00;;;8.17;50.81;95766.34;4940487;28;19929;-68
2022/02/06 11:28:16;;;;;;;;;;;10.10;42.90;;;8.11;50.67;95758.38;4944959;28;19934;-68
2022/02/06 11:30:43;;;;;;;;;;;10.10;43.20;;;8.05;49.25;95770.41;4962405;28;20390;-68
2022/02/06 11:33:09;;;;;;;;;;;10.00;43.20;;;8.01;51.19;95757.84;4952463;28;19929;-67
2022/02/06 11:35:37;;;;;;;;;;;10.00;43.70;;;7.97;50.68;95752.97;4961016;28;19918;-69
2022/02/06 11:44:34;;;;;;;;;;;9.60;44.00;;;7.65;49.87;95719.28;4943524;28;19994;-67
2022/02/06 11:47:04;;;;;;;;;;;9.10;44.00;;;7.49;50.50;95701.16;4928246;28;19942;-67
2022/02/06 11:49:29;;;;;;;;;;;9.00;44.80;;;7.37;50.38;95701.56;4934159;28;19998;-67
2022/02/06 11:51:59;;;;;;;;;;;8.70;45.00;;;7.31;50.54;95696.25;4955487;28;20005;-65
2022/02/06 11:54:32;;;;;;;;;;;8.80;45.10;;;7.21;50.38;95706.94;4944858;28;20294;-66
2022/02/06 11:57:16;;;;;;;;;;;8.60;45.20;;;7.11;50.97;95701.16;4942915;28;19962;-66
2022/02/06 11:59:42;;;;;;;;;;;8.60;45.50;;;7.00;50.70;95709.41;4929125;28;19929;-69
2022/02/06 12:02:27;;;;;;;;;;;8.50;45.70;;;6.98;51.66;95664.34;4931480;28;20283;-69
2022/02/06 12:05:11;;;;;;;;;;;8.70;45.50;;;6.98;51.53;95673.00;4946775;28;19927;-68
2022/02/06 12:07:51;;;;;;;;;;;8.80;45.50;;;7.11;51.19;95672.41;4935519;28;20009;-70
2022/02/06 12:10:32;;;;;;;;;;;9.40;44.40;;;7.38;50.79;95677.03;4940385;28;19941;-68
2022/02/06 12:13:17;;;;;;;;;;;10.50;42.50;;;7.55;49.85;95671.63;4932734;28;19922;-69
2022/02/06 12:15:53;;;;;;;;;;;10.10;41.90;;;7.62;50.57;95662.06;4933403;28;20331;-69
2022/02/06 12:18:35;;;;;;;;;;;9.70;43.10;;;7.62;50.06;95646.34;4944670;28;19919;-70
2022/02/06 12:21:19;;;;;;;;;;;9.60;43.70;;;7.71;50.21;95647.91;4921315;28;19926;-70
2022/02/06 12:23:49;;;;;;;;;;;10.00;42.90;;;7.85;49.76;95651.47;4934051;28;20715;-70
2022/02/06 12:26:28;;;;;;;;;;;10.30;41.80;;;7.91;49.38;95646.31;4918483;29;20298;-72
2022/02/06 12:29:08;;;;;;;;;;;10.10;41.90;;;7.86;49.66;95625.09;4947154;28;19980;-70
2022/02/06 12:31:46;;;;;;;;;;;9.90;43.00;;;7.92;50.93;95621.78;4975992;28;19923;-71
2022/02/06 12:34:12;;;;;;;;;;;10.00;43.10;;;7.80;49.79;95623.22;4937793;29;20014;-70
2022/02/06 12:39:22;;;;;;;;;;;9.40;44.60;;;7.68;50.53;95620.25;4933419;28;19918;-70
2022/02/06 12:41:48;;;;;;;;;;;9.50;44.90;;;7.68;51.37;95611.59;4932812;28;19922;-73
2022/02/06 12:44:15;;;;;;;;;;;9.60;45.30;;;7.62;51.44;95626.22;4966526;28;19922;-72
2022/02/06 12:46:41;;;;;;;;;;;9.20;46.30;;;7.55;51.46;95609.63;4941980;28;20364;-72
2022/02/06 12:49:07;;;;;;;;;;;9.10;46.40;;;7.46;51.19;95594.19;4937487;28;19918;-70
2022/02/06 12:51:35;;;;;;;;;;;8.90;47.10;;;7.37;52.57;95575.97;4961352;28;19954;-72
2022/02/06 12:54:01;;;;;;;;;;;8.80;47.80;;;7.24;52.35;95581.06;4947558;28;19942;-71
2022/02/06 12:56:27;;;;;;;;;;;8.60;48.30;;;7.17;52.71;95574.91;4966950;28;20342;-69
2022/02/06 12:58:55;;;;;;;;;;;8.60;48.50;;;7.08;53.45;95586.47;4946764;28;19918;-71
2022/02/06 13:01:39;;;;;;;;;;;8.40;49.00;;;6.97;53.23;95573.81;4935622;28;20276;-72
2022/02/06 13:04:06;;;;;;;;;;;8.40;49.60;;;6.84;53.91;95553.53;4959571;28;20010;-70
2022/02/06 13:06:38;;;;;;;;;;;8.20;49.90;;;6.72;53.98;95568.81;4937219;29;20494;-70
2022/02/06 13:09:08;;;;;;;;;;;8.10;50.30;;;6.62;53.88;95568.28;4962041;28;19919;-70
2022/02/06 13:11:47;;;;;;;;;;;8.00;50.50;;;6.53;54.85;95551.03;4959204;28;19922;-68
2022/02/06 13:14:27;;;;;;;;;;;7.90;51.10;;;6.46;54.65;95550.13;4954526;28;20338;-69
2022/02/06 13:28:47;;;;;;;;;;;7.90;51.50;;;6.36;55.39;95513.00;4923033;28;19922;-71
2022/02/06 13:33:14;;;;;;;;;;;7.80;51.40;;;6.29;55.88;95512.88;4932297;28;20397;-70
2022/02/06 13:35:55;;;;;;;;;;;7.70;51.90;;;6.22;55.55;95501.53;4924367;28;19949;-69
2022/02/06 13:38:21;;;;;;;;;;;7.60;52.00;;;6.16;55.43;95507.47;4961504;28;19969;-71
2022/02/06 13:40:51;;;;;;;;;;;7.50;52.40;;;6.12;55.79;95507.00;4913359;29;19923;-70
2022/02/06 13:43:24;;;;;;;;;;;7.50;52.70;;;6.09;56.02;95502.09;4977448;28;20277;-70
2022/02/06 13:45:54;;;;;;;;;;;7.50;52.60;;;6.09;55.98;95502.09;4949928;28;19942;-70
2022/02/06 13:48:20;;;;;;;;;;;7.60;52.70;;;6.08;56.17;95504.91;4945003;28;19919;-72
2022/02/06 13:50:51;;;;;;;;;;;7.50;52.90;;;6.05;56.59;95516.50;4925060;29;19931;-70
2022/02/06 13:53:19;;;;;;;;;;;7.60;53.10;;;6.08;56.75;95500.50;4954284;28;19933;-70
2022/02/06 13:55:50;;;;;;;;;;;7.60;53.00;;;6.05;56.35;95493.00;4943851;28;20404;-70
2022/02/06 13:58:21;;;;;;;;;;;7.50;52.70;;;5.99;56.61;95493.72;4929995;28;19918;-72
2022/02/06 14:01:09;;;;;;;;;;;7.50;52.80;;;5.96;56.35;95481.03;4929020;29;19922;-70
2022/02/06 14:03:44;;;;;;;;;;;7.40;53.10;;;5.94;57.11;95462.13;4915540;29;19919;-69
2022/02/06 14:06:11;;;;;;;;;;;7.40;53.30;;;5.90;57.64;95460.03;4969669;28;19918;-70